createdAt,value
2022-11-02T00:00:34.678Z,2.10
2022-11-02T00:03:01.422Z,1.50
2022-11-02T00:05:28.314Z,1.23
2022-11-02T00:07:55.877Z,1.17
2022-11-02T00:10:24.091Z,1.30
2022-11-02T00:12:51.471Z,1.52
2022-11-02T00:15:18.394Z,1.13
2022-11-02T00:17:50.241Z,0.93
2022-11-02T00:20:18.972Z,0.77
2022-11-02T00:22:48.220Z,1.42
2022-11-02T00:25:17.686Z,1.00
2022-11-02T00:27:44.410Z,1.67
2022-11-02T00:30:11.108Z,1.63
2022-11-02T00:32:37.685Z,0.93
2022-11-02T00:35:04.467Z,0.98
2022-11-02T00:37:31.022Z,1.25
2022-11-02T00:39:57.805Z,1.80
2022-11-02T00:42:24.349Z,0.90
2022-11-02T00:44:51.058Z,1.23
2022-11-02T00:47:19.405Z,1.67
2022-11-02T00:49:46.036Z,1.25
2022-11-02T00:52:13.187Z,1.20
2022-11-02T00:54:39.971Z,1.00
2022-11-02T00:57:06.774Z,1.08
2022-11-02T00:59:33.308Z,1.15
2022-11-02T01:02:00.103Z,0.90
2022-11-02T01:04:27.748Z,1.60
2022-11-02T01:06:54.345Z,1.20
2022-11-02T01:09:20.935Z,1.08
2022-11-02T01:14:28.244Z,1.02
2022-11-02T01:16:54.756Z,1.13
2022-11-02T01:19:21.261Z,1.42
2022-11-02T01:21:49.051Z,1.40
2022-11-02T01:24:15.641Z,1.30
2022-11-02T01:26:42.104Z,1.15
2022-11-02T01:31:36.859Z,1.08
2022-11-02T01:34:03.532Z,1.10
2022-11-02T01:36:30.099Z,0.90
2022-11-02T01:38:57.107Z,1.17
2022-11-02T01:41:23.680Z,1.65
2022-11-02T01:43:54.446Z,1.20
2022-11-02T01:46:25.929Z,1.10
2022-11-02T01:49:21.754Z,0.73
2022-11-02T01:51:59.948Z,1.27
2022-11-02T01:54:31.035Z,1.10
2022-11-02T01:57:03.044Z,1.10
2022-11-02T01:59:35.326Z,1.55
2022-11-02T02:02:07.890Z,1.05
2022-11-02T02:04:35.216Z,0.93
2022-11-02T02:07:02.451Z,0.73
2022-11-02T02:09:29.938Z,1.73
2022-11-02T02:11:56.656Z,1.17
2022-11-02T02:14:23.383Z,0.95
2022-11-02T02:17:37.735Z,1.50
2022-11-02T02:20:10.127Z,1.50
2022-11-02T02:22:39.280Z,1.23
2022-11-02T02:25:23.932Z,1.83
2022-11-02T02:28:06.936Z,1.05
2022-11-02T02:30:50.261Z,0.98
2022-11-02T02:33:58.689Z,1.00
2022-11-02T02:36:50.783Z,1.10
2022-11-02T02:39:26.260Z,1.00
2022-11-02T02:42:07.784Z,1.38
2022-11-02T02:44:36.628Z,0.95
2022-11-02T02:47:10.560Z,1.00
2022-11-02T02:49:42.826Z,1.10
2022-11-02T02:52:10.001Z,1.35
2022-11-02T02:54:41.014Z,1.10
2022-11-02T02:57:15.170Z,1.25
2022-11-02T02:59:47.321Z,1.20
2022-11-02T03:02:23.379Z,1.00
2022-11-02T03:04:50.317Z,1.10
2022-11-02T03:10:13.958Z,1.17
2022-11-02T03:13:02.016Z,1.05
2022-11-02T03:15:45.727Z,0.70
2022-11-02T03:18:34.350Z,0.98
2022-11-02T03:21:01.797Z,0.63
2022-11-02T03:23:37.758Z,1.10
2022-11-02T03:26:06.952Z,1.13
2022-11-02T03:28:48.936Z,1.20
2022-11-02T03:31:31.724Z,1.27
2022-11-02T03:34:09.205Z,0.98
2022-11-02T03:37:01.205Z,1.60
2022-11-02T03:39:40.062Z,1.50
2022-11-02T03:42:11.719Z,0.90
2022-11-02T03:44:40.197Z,1.13
2022-11-02T03:47:12.458Z,1.13
2022-11-02T03:49:42.948Z,1.38
2022-11-02T03:52:16.340Z,1.00
2022-11-02T03:55:07.392Z,0.88
2022-11-02T03:57:47.962Z,0.90
2022-11-02T04:00:21.110Z,1.15
2022-11-02T04:02:59.478Z,1.35
2022-11-02T04:05:31.227Z,1.17
2022-11-02T04:08:00.209Z,1.45
2022-11-02T04:10:28.191Z,1.13
2022-11-02T04:12:54.923Z,1.15
2022-11-02T04:15:21.706Z,1.25
2022-11-02T04:17:48.702Z,1.75
2022-11-02T04:22:43.412Z,1.23
2022-11-02T04:25:15.534Z,1.05
2022-11-02T04:27:50.307Z,1.77
2022-11-02T04:30:20.933Z,1.60
2022-11-02T04:32:49.686Z,1.95
2022-11-02T04:35:17.691Z,2.17
2022-11-02T04:40:12.724Z,1.63
2022-11-02T04:42:39.212Z,2.10
2022-11-02T04:45:06.219Z,1.30
2022-11-02T04:47:32.856Z,1.70
2022-11-02T04:49:59.329Z,1.90
2022-11-02T04:52:25.838Z,1.30
2022-11-02T04:54:53.295Z,1.58
2022-11-02T04:57:19.934Z,2.08
2022-11-02T04:59:47.126Z,1.58
2022-11-02T05:02:13.862Z,1.67
2022-11-02T05:04:42.270Z,1.30
2022-11-02T05:07:11.047Z,1.52
2022-11-02T05:09:38.450Z,1.20
2022-11-02T05:12:05.596Z,1.85
2022-11-02T05:14:33.412Z,1.63
2022-11-02T05:17:00.856Z,1.70
2022-11-02T05:19:28.051Z,2.40
2022-11-02T05:21:54.690Z,2.78
2022-11-02T05:24:22.259Z,1.92
2022-11-02T05:26:53.762Z,1.77
2022-11-02T05:29:23.599Z,1.70
2022-11-02T05:31:51.154Z,2.25
2022-11-02T05:34:17.705Z,1.85
2022-11-02T05:36:48.165Z,1.30
2022-11-02T05:39:15.589Z,1.42
2022-11-02T05:41:42.284Z,0.98
2022-11-02T05:44:09.588Z,1.35
2022-11-02T05:46:38.714Z,0.75
2022-11-02T05:49:05.216Z,1.10
2022-11-02T05:51:31.816Z,1.13
2022-11-02T05:53:58.305Z,1.75
2022-11-02T05:56:25.436Z,1.25
2022-11-02T05:58:54.566Z,1.00
2022-11-02T06:01:21.161Z,1.40
2022-11-02T06:03:53.184Z,1.40
2022-11-02T06:06:20.239Z,1.80
2022-11-02T06:08:46.732Z,1.65
2022-11-02T06:11:14.577Z,1.45
2022-11-02T06:13:41.926Z,1.30
2022-11-02T06:16:10.542Z,0.73
2022-11-02T06:18:38.321Z,1.65
2022-11-02T06:21:05.430Z,1.52
2022-11-02T06:23:31.997Z,1.75
2022-11-02T06:26:00.217Z,1.67
2022-11-02T06:28:28.407Z,1.45
2022-11-02T06:30:56.034Z,0.88
2022-11-02T06:33:23.332Z,1.27
2022-11-02T06:35:54.074Z,1.10
2022-11-02T06:38:21.152Z,1.00
2022-11-02T06:40:58.640Z,1.70
2022-11-02T06:43:25.486Z,1.08
2022-11-02T06:45:56.629Z,1.65
2022-11-02T06:48:26.498Z,0.93
2022-11-02T06:50:55.251Z,0.90
2022-11-02T06:53:21.817Z,0.98
2022-11-02T06:55:52.719Z,0.77
2022-11-02T06:58:19.467Z,1.35
2022-11-02T07:00:46.063Z,1.17
2022-11-02T07:03:12.648Z,1.48
2022-11-02T07:05:39.179Z,1.27
2022-11-02T07:08:06.293Z,1.67
2022-11-02T07:10:32.998Z,1.17
2022-11-02T07:12:59.575Z,1.27
2022-11-02T07:15:26.513Z,1.33
2022-11-02T07:17:53.681Z,0.88
2022-11-02T07:20:20.558Z,1.33
2022-11-02T07:23:01.717Z,1.83
2022-11-02T07:25:30.653Z,1.60
2022-11-02T07:27:58.013Z,1.33
2022-11-02T07:30:24.510Z,1.13
2022-11-02T07:32:51.211Z,1.10
2022-11-02T07:35:18.824Z,1.15
2022-11-02T07:38:04.984Z,1.20
2022-11-02T07:40:33.343Z,1.15
2022-11-02T07:43:00.365Z,1.15
2022-11-02T07:45:49.402Z,1.30
2022-11-02T07:48:15.995Z,2.13
2022-11-02T07:50:42.657Z,2.05
2022-11-02T07:53:09.664Z,2.53
2022-11-02T07:55:36.324Z,2.20
2022-11-02T07:58:05.311Z,1.67
2022-11-02T08:00:34.689Z,2.65
2022-11-02T08:03:02.546Z,1.98
2022-11-02T08:05:31.052Z,1.92
2022-11-02T08:10:37.088Z,1.55
2022-11-02T08:13:05.967Z,1.02
2022-11-02T08:15:32.551Z,1.40
2022-11-02T08:18:13.198Z,1.73
2022-11-02T08:20:39.775Z,1.85
2022-11-02T08:23:06.859Z,1.63
2022-11-02T08:25:34.165Z,1.40
2022-11-02T08:28:01.762Z,1.90
2022-11-02T08:30:30.106Z,1.73
2022-11-02T08:33:03.168Z,1.65
2022-11-02T08:35:29.712Z,1.50
2022-11-02T08:37:57.348Z,1.92
2022-11-02T08:40:24.413Z,1.63
2022-11-02T08:43:05.736Z,1.13
2022-11-02T08:45:54.205Z,1.27
2022-11-02T08:48:21.091Z,1.20
2022-11-02T08:50:49.095Z,2.00
2022-11-02T08:53:15.616Z,1.27
2022-11-02T08:55:42.390Z,1.42
2022-11-02T08:58:09.149Z,1.67
2022-11-02T09:00:36.129Z,1.70
2022-11-02T09:03:07.939Z,2.13
2022-11-02T09:05:45.805Z,1.45
2022-11-02T09:08:18.483Z,1.17
2022-11-02T09:10:48.481Z,0.95
2022-11-02T09:13:19.275Z,1.00
2022-11-02T09:15:45.736Z,1.30
2022-11-02T09:18:12.272Z,1.48
2022-11-02T09:20:38.974Z,1.20
2022-11-02T09:23:07.692Z,1.90
2022-11-02T09:25:34.343Z,1.40
2022-11-02T09:28:00.884Z,1.20
2022-11-02T09:30:28.124Z,0.95
2022-11-02T09:33:02.937Z,1.80
2022-11-02T09:35:32.646Z,1.85
2022-11-02T09:37:59.358Z,1.23
2022-11-02T09:40:28.588Z,1.27
2022-11-02T09:43:01.626Z,1.00
2022-11-02T09:45:29.281Z,0.90
2022-11-02T09:48:24.992Z,1.60
2022-11-02T09:51:14.428Z,0.95
2022-11-02T09:53:52.660Z,1.20
2022-11-02T09:56:19.780Z,1.27
2022-11-02T09:58:53.382Z,1.95
2022-11-02T10:01:33.407Z,1.00
2022-11-02T10:04:02.835Z,1.00
2022-11-02T10:06:31.378Z,0.98
2022-11-02T10:09:14.887Z,1.00
2022-11-02T10:12:30.203Z,0.98
2022-11-02T10:15:26.992Z,1.63
2022-11-02T10:17:57.479Z,1.03
2022-11-02T10:20:41.582Z,1.63
2022-11-02T10:23:17.068Z,1.92
2022-11-02T10:25:44.482Z,1.50
2022-11-02T10:28:16.912Z,1.10
2022-11-02T10:30:44.764Z,0.90
2022-11-02T10:33:15.206Z,0.80
2022-11-02T10:36:19.450Z,0.93
2022-11-02T10:38:55.282Z,1.30
2022-11-02T10:41:42.708Z,1.52
2022-11-02T10:44:41.295Z,2.00
2022-11-02T10:47:17.857Z,1.70
2022-11-02T10:50:10.979Z,1.35
2022-11-02T10:52:41.856Z,1.13
2022-11-02T10:55:17.311Z,0.80
2022-11-02T10:57:43.973Z,1.13
2022-11-02T11:00:26.704Z,0.93
2022-11-02T11:03:22.698Z,0.88
2022-11-02T11:06:04.267Z,0.70
2022-11-02T11:09:15.368Z,1.10
2022-11-02T11:11:41.912Z,0.65
2022-11-02T11:20:07.612Z,1.20
2022-11-02T11:22:39.396Z,1.02
2022-11-02T11:25:27.656Z,0.90
2022-11-02T11:27:59.355Z,1.83
2022-11-02T11:33:21.019Z,0.90
2022-11-02T11:35:50.639Z,1.25
2022-11-02T11:38:21.191Z,0.73
2022-11-02T11:40:51.205Z,0.80
2022-11-02T11:43:18.214Z,1.23
2022-11-02T11:45:58.208Z,1.70
2022-11-02T11:48:40.023Z,0.98
2022-11-02T11:54:21.438Z,0.70
2022-11-02T11:56:49.992Z,1.65
2022-11-02T11:59:27.992Z,1.00
2022-11-02T12:04:34.476Z,1.23
2022-11-02T12:07:00.992Z,0.85
2022-11-02T12:09:59.204Z,1.35
2022-11-02T12:12:49.136Z,1.75
2022-11-02T12:15:36.931Z,1.73
2022-11-02T12:20:54.508Z,1.73
2022-11-02T12:23:31.864Z,1.70
2022-11-02T12:26:26.178Z,2.60
2022-11-02T12:29:16.503Z,0.80
2022-11-02T12:31:54.526Z,0.88
2022-11-02T12:34:57.784Z,1.58
2022-11-02T12:37:47.250Z,1.42
2022-11-02T12:43:32.433Z,2.33
2022-11-02T12:46:03.371Z,1.35
2022-11-02T12:48:47.145Z,1.45
2022-11-02T12:51:16.763Z,2.45
2022-11-02T12:53:55.679Z,1.40
2022-11-02T12:56:43.634Z,1.65
2022-11-02T12:59:26.999Z,3.47
2022-11-02T13:02:04.107Z,2.28
2022-11-02T13:04:45.933Z,0.80
2022-11-02T13:07:18.717Z,1.02
2022-11-02T13:09:56.693Z,1.40
2022-11-02T13:14:54.585Z,0.80
2022-11-02T13:17:41.934Z,0.85
2022-11-02T13:20:20.583Z,1.05
2022-11-02T13:22:58.046Z,2.15
2022-11-02T13:25:38.957Z,0.52
2022-11-02T13:28:28.790Z,0.85
2022-11-02T13:30:55.469Z,1.05
2022-11-02T13:33:44.452Z,1.48
2022-11-02T13:36:11.849Z,1.02
2022-11-02T13:38:54.968Z,1.42
2022-11-02T13:41:41.215Z,1.17
2022-11-02T13:44:36.721Z,1.17
2022-11-02T13:47:08.726Z,0.90
2022-11-02T13:49:40.209Z,0.90
2022-11-02T13:52:15.810Z,1.05
2022-11-02T13:54:55.746Z,1.50
2022-11-02T13:57:33.440Z,1.50
2022-11-02T14:00:02.332Z,0.80
2022-11-02T14:02:37.125Z,0.80
2022-11-02T14:05:04.182Z,1.13
2022-11-02T14:07:40.754Z,0.90
2022-11-02T14:10:15.327Z,0.80
2022-11-02T14:12:46.114Z,0.70
2022-11-02T14:15:12.645Z,0.70
2022-11-02T14:18:11.100Z,1.30
2022-11-02T14:20:47.048Z,1.80
2022-11-02T14:23:13.703Z,1.67
2022-11-02T14:25:49.196Z,1.27
2022-11-02T14:28:21.518Z,1.13
2022-11-02T14:31:17.363Z,1.38
2022-11-02T14:34:07.197Z,1.20
2022-11-02T14:36:51.172Z,0.82
2022-11-02T14:39:41.825Z,1.20
2022-11-02T14:42:25.930Z,1.42
2022-11-02T14:44:58.084Z,1.02
2022-11-02T14:47:31.300Z,0.80
2022-11-02T14:50:14.081Z,0.73
2022-11-02T14:52:52.497Z,0.30
2022-11-02T14:55:18.976Z,0.60
2022-11-02T14:58:10.910Z,0.40
2022-11-02T15:01:00.383Z,0.30
2022-11-02T15:03:26.873Z,0.38
2022-11-02T15:06:03.596Z,0.65
2022-11-02T15:08:42.308Z,0.50
2022-11-02T15:11:45.902Z,0.65
2022-11-02T15:14:37.485Z,1.13
2022-11-02T15:17:12.957Z,0.50
2022-11-02T15:19:42.242Z,0.80
2022-11-02T15:22:39.729Z,0.93
2022-11-02T15:25:08.941Z,1.50
2022-11-02T15:27:38.159Z,0.60
2022-11-02T15:30:14.247Z,1.08
2022-11-02T15:32:45.564Z,0.80
2022-11-02T15:35:24.071Z,0.38
2022-11-02T15:38:16.441Z,0.85
2022-11-02T15:40:43.417Z,0.75
2022-11-02T15:47:08.278Z,0.90
2022-11-02T15:50:19.464Z,1.13
2022-11-02T15:53:24.460Z,0.57
2022-11-02T15:56:36.499Z,0.63
2022-11-02T15:59:21.185Z,0.60
2022-11-02T16:02:09.083Z,0.40
2022-11-02T16:04:36.816Z,0.50
2022-11-02T16:07:06.177Z,0.47
2022-11-02T16:09:35.809Z,0.43
2022-11-02T16:12:12.275Z,0.40
2022-11-02T16:14:42.683Z,1.38
2022-11-02T16:17:27.055Z,1.02
2022-11-02T16:20:16.952Z,0.95
2022-11-02T16:22:53.255Z,0.95
2022-11-02T16:25:26.956Z,0.85
2022-11-02T16:27:53.593Z,0.90
2022-11-02T16:30:22.414Z,1.02
2022-11-02T16:33:00.199Z,0.90
2022-11-02T16:35:27.533Z,1.25
2022-11-02T16:37:54.056Z,1.63
2022-11-02T16:40:21.556Z,1.20
2022-11-02T16:42:51.752Z,2.42
2022-11-02T16:45:42.301Z,2.33
2022-11-02T16:48:19.649Z,3.20
2022-11-02T16:51:02.616Z,2.10
2022-11-02T16:53:32.189Z,2.17
2022-11-02T16:56:12.873Z,1.60
2022-11-02T16:58:46.355Z,0.80
2022-11-02T17:01:23.627Z,0.90
2022-11-02T17:03:50.464Z,0.88
2022-11-02T17:06:17.988Z,0.70
2022-11-02T17:08:50.628Z,0.68
2022-11-02T17:11:17.889Z,1.15
2022-11-02T17:13:50.483Z,0.93
2022-11-02T17:16:17.284Z,1.35
2022-11-02T17:18:44.054Z,1.15
2022-11-02T17:21:13.578Z,1.77
2022-11-02T17:23:42.858Z,1.20
2022-11-02T17:26:26.400Z,1.70
2022-11-02T17:28:58.359Z,1.67
2022-11-02T17:31:34.470Z,1.63
2022-11-02T17:34:10.351Z,1.33
2022-11-02T17:36:44.946Z,1.05
2022-11-02T17:39:14.638Z,2.15
2022-11-02T17:41:47.770Z,1.67
2022-11-02T17:44:16.605Z,1.65
2022-11-02T17:46:45.740Z,1.95
2022-11-02T17:49:12.908Z,1.70
2022-11-02T17:51:39.725Z,1.63
2022-11-02T17:54:06.600Z,1.88
2022-11-02T17:56:33.105Z,1.90
2022-11-02T17:58:59.570Z,1.98
2022-11-02T18:01:26.765Z,1.58
2022-11-02T18:03:53.436Z,1.70
2022-11-02T18:06:19.965Z,1.52
2022-11-02T18:08:46.621Z,2.33
2022-11-02T18:11:13.120Z,1.95
2022-11-02T18:13:39.609Z,2.17
2022-11-02T18:16:06.366Z,1.38
2022-11-02T18:18:33.095Z,1.70
2022-11-02T18:20:59.626Z,1.83
2022-11-02T18:23:26.275Z,1.58
2022-11-02T18:25:55.306Z,2.10
2022-11-02T18:28:24.883Z,2.03
2022-11-02T18:30:51.532Z,2.08
2022-11-02T18:33:18.055Z,2.78
2022-11-02T18:35:44.554Z,2.80
2022-11-02T18:38:11.275Z,3.67
2022-11-02T18:40:37.859Z,2.60
2022-11-02T18:43:04.805Z,2.85
2022-11-02T18:45:31.785Z,2.37
2022-11-02T18:47:58.422Z,3.00
2022-11-02T18:50:26.335Z,3.78
2022-11-02T18:52:52.826Z,2.67
2022-11-02T18:55:19.359Z,4.40
2022-11-02T18:57:45.821Z,6.22
2022-11-02T19:00:13.609Z,4.50
2022-11-02T19:02:40.175Z,5.50
2022-11-02T19:05:07.118Z,5.93
2022-11-02T19:07:33.681Z,4.57
2022-11-02T19:10:03.600Z,5.50
2022-11-02T19:12:31.045Z,5.60
2022-11-02T19:14:57.895Z,6.15
2022-11-02T19:17:26.349Z,6.40
2022-11-02T19:19:53.103Z,5.22
2022-11-02T19:22:21.938Z,4.40
2022-11-02T19:24:48.966Z,4.68
2022-11-02T19:27:17.232Z,3.83
2022-11-02T19:29:44.046Z,3.72
2022-11-02T19:32:10.676Z,3.95
2022-11-02T19:34:37.390Z,3.55
2022-11-02T19:37:05.538Z,3.15
2022-11-02T19:41:58.659Z,3.78
2022-11-02T19:44:25.377Z,3.30
2022-11-02T19:46:52.290Z,3.45
2022-11-02T19:49:18.916Z,2.42
2022-11-02T19:51:45.683Z,2.50
2022-11-02T19:54:12.275Z,3.42
2022-11-02T19:56:39.005Z,2.85
2022-11-02T19:59:06.197Z,2.47
2022-11-02T20:01:35.587Z,2.97
2022-11-02T20:04:02.675Z,3.17
2022-11-02T20:06:34.730Z,3.28
2022-11-02T20:09:03.062Z,3.22
2022-11-02T20:11:29.808Z,3.20
2022-11-02T20:13:57.867Z,2.35
2022-11-02T20:16:25.259Z,2.60
2022-11-02T20:18:52.707Z,2.93
2022-11-02T20:21:26.853Z,2.42
2022-11-02T20:23:57.902Z,2.80
2022-11-02T20:26:29.872Z,2.42
2022-11-02T20:28:56.644Z,2.83
2022-11-02T20:31:31.363Z,2.47
2022-11-02T20:34:01.928Z,2.75
2022-11-02T20:36:29.217Z,2.65
2022-11-02T20:38:55.760Z,2.90
2022-11-02T20:41:23.321Z,2.85
2022-11-02T20:43:51.482Z,3.30
2022-11-02T20:49:20.723Z,2.58
2022-11-02T20:51:52.103Z,3.13
2022-11-02T20:54:18.719Z,3.33
2022-11-02T20:56:45.228Z,3.15
2022-11-02T20:59:11.696Z,3.17
2022-11-02T21:01:38.460Z,2.97
2022-11-02T21:04:05.132Z,3.88
2022-11-02T21:06:31.666Z,2.85
2022-11-02T21:08:58.179Z,3.47
2022-11-02T21:11:24.909Z,2.88
2022-11-02T21:13:51.662Z,2.53
2022-11-02T21:16:18.340Z,3.20
2022-11-02T21:18:44.851Z,3.33
2022-11-02T21:21:16.971Z,3.45
2022-11-02T21:23:43.778Z,3.00
2022-11-02T21:26:11.933Z,3.33
2022-11-02T21:28:40.210Z,2.97
2022-11-02T21:36:01.813Z,2.45
2022-11-02T21:38:29.314Z,2.97
2022-11-02T21:40:59.902Z,2.55
2022-11-02T21:43:27.150Z,2.40
2022-11-02T21:45:55.897Z,3.08
2022-11-02T21:48:24.472Z,2.40
2022-11-02T21:51:00.937Z,2.30
2022-11-02T21:53:27.683Z,2.22
2022-11-02T21:55:59.460Z,2.42
2022-11-02T21:58:26.384Z,2.63
2022-11-02T22:01:04.855Z,2.10
2022-11-02T22:03:31.400Z,2.58
2022-11-02T22:05:57.936Z,2.70
2022-11-02T22:08:25.660Z,2.90
2022-11-02T22:10:57.288Z,2.50
2022-11-02T22:13:23.830Z,1.50
2022-11-02T22:15:50.338Z,2.20
2022-11-02T22:18:17.034Z,2.35
2022-11-02T22:20:43.520Z,1.55
2022-11-02T22:23:10.169Z,2.03
2022-11-02T22:25:36.696Z,2.00
2022-11-02T22:28:03.302Z,2.30
2022-11-02T22:30:30.013Z,2.10
2022-11-02T22:32:56.538Z,2.15
2022-11-02T22:35:23.125Z,2.45
2022-11-02T22:37:49.703Z,1.70
2022-11-02T22:40:16.280Z,2.22
2022-11-02T22:42:42.785Z,2.10
2022-11-02T22:45:09.654Z,1.95
2022-11-02T22:47:36.294Z,3.03
2022-11-02T22:50:02.967Z,2.13
2022-11-02T22:52:29.711Z,2.17
2022-11-02T22:54:56.342Z,2.55
2022-11-02T22:57:22.795Z,2.13
2022-11-02T22:59:49.293Z,1.75
2022-11-02T23:02:15.982Z,2.13
2022-11-02T23:04:43.062Z,2.42
2022-11-02T23:07:09.603Z,2.63
2022-11-02T23:09:36.231Z,2.60
2022-11-02T23:12:02.878Z,2.67
2022-11-02T23:14:29.419Z,2.08
2022-11-02T23:16:55.962Z,2.30
2022-11-02T23:19:27.272Z,2.03
2022-11-02T23:22:01.500Z,2.35
2022-11-02T23:24:28.044Z,2.08
2022-11-02T23:26:54.847Z,2.45
2022-11-02T23:29:21.462Z,2.17
2022-11-02T23:31:48.040Z,1.98
2022-11-02T23:34:14.479Z,1.77
2022-11-02T23:36:40.921Z,1.98
2022-11-02T23:39:07.421Z,2.00
2022-11-02T23:41:35.787Z,1.83
2022-11-02T23:44:02.489Z,2.35
2022-11-02T23:46:29.122Z,2.03
2022-11-02T23:48:55.622Z,3.08
2022-11-02T23:51:22.065Z,2.65
2022-11-02T23:53:48.829Z,2.03
2022-11-02T23:56:16.602Z,2.08
2022-11-02T23:58:43.655Z,2.15
